sensor_id;sensor_type;location;lat;lon;timestamp;temperature;humidity
26049;DHT22;13822;51.568;5.086;2022-07-29T05:33:05;16.10;99.90
26049;DHT22;13822;51.568;5.086;2022-07-29T05:38:07;16.10;99.90
26049;DHT22;13822;51.568;5.086;2022-07-29T05:43:20;16.10;99.90
26049;DHT22;13822;51.568;5.086;2022-07-29T05:48:22;16.20;99.90
26049;DHT22;13822;51.568;5.086;2022-07-29T05:53:44;16.20;99.90
26049;DHT22;13822;51.568;5.086;2022-07-29T05:59:22;16.10;99.90
26049;DHT22;13822;51.568;5.086;2022-07-29T06:05:04;16.10;99.90
26049;DHT22;13822;51.568;5.086;2022-07-29T06:10:12;16.10;99.90
26049;DHT22;13822;51.568;5.086;2022-07-29T06:15:20;16.10;99.90
26049;DHT22;13822;51.568;5.086;2022-07-29T06:26:30;16.10;99.90
26049;DHT22;13822;51.568;5.086;2022-07-29T06:32:04;16.10;99.90
26049;DHT22;13822;51.568;5.086;2022-07-29T06:37:08;16.10;99.90
26049;DHT22;13822;51.568;5.086;2022-07-29T06:42:16;16.20;99.90
26049;DHT22;13822;51.568;5.086;2022-07-29T06:47:18;16.20;99.90
26049;DHT22;13822;51.568;5.086;2022-07-29T06:52:20;16.30;99.90
26049;DHT22;13822;51.568;5.086;2022-07-29T06:57:23;16.40;99.90
26049;DHT22;13822;51.568;5.086;2022-07-29T07:02:25;16.50;99.90
26049;DHT22;13822;51.568;5.086;2022-07-29T07:07:28;16.60;99.90
26049;DHT22;13822;51.568;5.086;2022-07-29T07:12:30;16.70;99.90
26049;DHT22;13822;51.568;5.086;2022-07-29T07:17:33;16.90;99.90
26049;DHT22;13822;51.568;5.086;2022-07-29T07:22:35;17.00;99.90
26049;DHT22;13822;51.568;5.086;2022-07-29T07:27:42;17.20;99.90
26049;DHT22;13822;51.568;5.086;2022-07-29T07:32:47;17.30;99.90
26049;DHT22;13822;51.568;5.086;2022-07-29T07:37:55;17.50;99.90
26049;DHT22;13822;51.568;5.086;2022-07-29T07:42:57;17.60;99.90
26049;DHT22;13822;51.568;5.086;2022-07-29T07:48:00;17.70;99.90
26049;DHT22;13822;51.568;5.086;2022-07-29T07:53:02;17.90;99.90
26049;DHT22;13822;51.568;5.086;2022-07-29T07:58:04;18.10;99.90
26049;DHT22;13822;51.568;5.086;2022-07-29T08:03:06;18.20;99.90
26049;DHT22;13822;51.568;5.086;2022-07-29T08:08:18;18.30;99.90
26049;DHT22;13822;51.568;5.086;2022-07-29T08:13:20;18.40;99.90
26049;DHT22;13822;51.568;5.086;2022-07-29T08:18:24;18.50;99.90
26049;DHT22;13822;51.568;5.086;2022-07-29T08:23:27;18.70;99.90
26049;DHT22;13822;51.568;5.086;2022-07-29T08:28:49;18.90;99.90
26049;DHT22;13822;51.568;5.086;2022-07-29T08:33:52;19.00;99.90
26049;DHT22;13822;51.568;5.086;2022-07-29T08:38:54;19.20;99.90
26049;DHT22;13822;51.568;5.086;2022-07-29T08:43:56;19.30;99.90
26049;DHT22;13822;51.568;5.086;2022-07-29T08:48:58;19.50;99.90
26049;DHT22;13822;51.568;5.086;2022-07-29T08:54:01;19.70;99.90
26049;DHT22;13822;51.568;5.086;2022-07-29T08:59:04;19.90;99.90
26049;DHT22;13822;51.568;5.086;2022-07-29T09:04:10;20.00;99.90
26049;DHT22;13822;51.568;5.086;2022-07-29T09:09:13;20.10;99.90
26049;DHT22;13822;51.568;5.086;2022-07-29T09:14:16;20.40;99.90
26049;DHT22;13822;51.568;5.086;2022-07-29T09:19:26;20.60;99.90
26049;DHT22;13822;51.568;5.086;2022-07-29T09:24:46;20.70;99.90
26049;DHT22;13822;51.568;5.086;2022-07-29T09:29:57;20.90;99.90
26049;DHT22;13822;51.568;5.086;2022-07-29T09:35:20;21.20;99.90
26049;DHT22;13822;51.568;5.086;2022-07-29T09:40:26;21.30;99.90
26049;DHT22;13822;51.568;5.086;2022-07-29T09:45:33;21.50;99.90
26049;DHT22;13822;51.568;5.086;2022-07-29T09:50:40;21.60;99.90
26049;DHT22;13822;51.568;5.086;2022-07-29T09:55:49;21.80;99.90
26049;DHT22;13822;51.568;5.086;2022-07-29T10:00:53;22.00;99.90
26049;DHT22;13822;51.568;5.086;2022-07-29T10:06:06;22.10;99.90
26049;DHT22;13822;51.568;5.086;2022-07-29T10:11:12;22.30;99.10
26049;DHT22;13822;51.568;5.086;2022-07-29T10:16:18;22.40;94.50
26049;DHT22;13822;51.568;5.086;2022-07-29T10:21:20;22.60;99.90
26049;DHT22;13822;51.568;5.086;2022-07-29T10:26:36;22.90;96.90
26049;DHT22;13822;51.568;5.086;2022-07-29T10:42:49;23.90;99.90
26049;DHT22;13822;51.568;5.086;2022-07-29T10:48:03;24.10;93.50
26049;DHT22;13822;51.568;5.086;2022-07-29T10:53:08;24.40;97.30
26049;DHT22;13822;51.568;5.086;2022-07-29T10:58:21;24.70;92.20
26049;DHT22;13822;51.568;5.086;2022-07-29T11:03:47;25.20;85.50
26049;DHT22;13822;51.568;5.086;2022-07-29T11:09:16;25.50;75.40
26049;DHT22;13822;51.568;5.086;2022-07-29T11:25:33;26.40;47.80
26049;DHT22;13822;51.568;5.086;2022-07-29T11:30:55;26.40;57.40
26049;DHT22;13822;51.568;5.086;2022-07-29T11:36:12;26.90;66.00
26049;DHT22;13822;51.568;5.086;2022-07-29T11:41:24;27.30;55.70
26049;DHT22;13822;51.568;5.086;2022-07-29T11:51:52;27.90;44.60
26049;DHT22;13822;51.568;5.086;2022-07-29T11:56:57;28.00;48.40
26049;DHT22;13822;51.568;5.086;2022-07-29T12:01:59;28.20;51.20
26049;DHT22;13822;51.568;5.086;2022-07-29T12:07:30;28.60;52.40
26049;DHT22;13822;51.568;5.086;2022-07-29T12:12:36;28.70;44.00
26049;DHT22;13822;51.568;5.086;2022-07-29T12:17:39;28.70;45.50
26049;DHT22;13822;51.568;5.086;2022-07-29T12:22:41;28.90;44.60
26049;DHT22;13822;51.568;5.086;2022-07-29T12:27:46;29.30;43.30
26049;DHT22;13822;51.568;5.086;2022-07-29T12:32:48;29.70;44.60
26049;DHT22;13822;51.568;5.086;2022-07-29T12:37:51;29.90;41.00
26049;DHT22;13822;51.568;5.086;2022-07-29T12:43:10;30.00;40.80
26049;DHT22;13822;51.568;5.086;2022-07-29T12:48:13;30.10;37.70
26049;DHT22;13822;51.568;5.086;2022-07-29T12:53:16;30.10;37.50
26049;DHT22;13822;51.568;5.086;2022-07-29T13:03:51;30.10;34.80
26049;DHT22;13822;51.568;5.086;2022-07-29T13:14:07;30.40;34.30
26049;DHT22;13822;51.568;5.086;2022-07-29T13:19:11;30.40;37.20
26049;DHT22;13822;51.568;5.086;2022-07-29T13:24:14;30.40;36.40
26049;DHT22;13822;51.568;5.086;2022-07-29T13:29:20;30.50;36.50
26049;DHT22;13822;51.568;5.086;2022-07-29T13:34:23;30.50;37.50
26049;DHT22;13822;51.568;5.086;2022-07-29T13:39:25;30.50;33.90
26049;DHT22;13822;51.568;5.086;2022-07-29T13:44:27;30.10;36.00
26049;DHT22;13822;51.568;5.086;2022-07-29T13:49:29;30.10;35.50
26049;DHT22;13822;51.568;5.086;2022-07-29T13:54:31;30.10;36.80
26049;DHT22;13822;51.568;5.086;2022-07-29T13:59:33;30.20;36.60
26049;DHT22;13822;51.568;5.086;2022-07-29T14:04:36;30.50;34.40
26049;DHT22;13822;51.568;5.086;2022-07-29T14:09:40;30.60;34.60
26049;DHT22;13822;51.568;5.086;2022-07-29T14:14:43;30.80;34.60
26049;DHT22;13822;51.568;5.086;2022-07-29T14:19:47;30.80;33.50
26049;DHT22;13822;51.568;5.086;2022-07-29T14:24:49;31.00;34.60
26049;DHT22;13822;51.568;5.086;2022-07-29T14:29:52;31.20;34.90
26049;DHT22;13822;51.568;5.086;2022-07-29T14:34:54;31.10;32.30
26049;DHT22;13822;51.568;5.086;2022-07-29T14:39:56;30.80;29.20
26049;DHT22;13822;51.568;5.086;2022-07-29T14:45:01;30.50;32.90
26049;DHT22;13822;51.568;5.086;2022-07-29T14:50:03;30.50;33.00
26049;DHT22;13822;51.568;5.086;2022-07-29T14:55:07;30.50;33.60
26049;DHT22;13822;51.568;5.086;2022-07-29T15:00:20;30.50;32.90
26049;DHT22;13822;51.568;5.086;2022-07-29T15:05:22;30.40;32.30
26049;DHT22;13822;51.568;5.086;2022-07-29T15:10:24;30.30;33.00
26049;DHT22;13822;51.568;5.086;2022-07-29T15:15:28;30.10;32.90
26049;DHT22;13822;51.568;5.086;2022-07-29T15:20:31;30.00;33.20
26049;DHT22;13822;51.568;5.086;2022-07-29T15:25:33;29.90;33.40
26049;DHT22;13822;51.568;5.086;2022-07-29T15:30:37;29.80;33.20
26049;DHT22;13822;51.568;5.086;2022-07-29T15:35:43;29.40;32.70
26049;DHT22;13822;51.568;5.086;2022-07-29T15:40:45;29.20;34.10
26049;DHT22;13822;51.568;5.086;2022-07-29T15:45:47;29.20;34.50
26049;DHT22;13822;51.568;5.086;2022-07-29T15:51:08;29.00;33.60
26049;DHT22;13822;51.568;5.086;2022-07-29T15:56:10;28.60;34.60
26049;DHT22;13822;51.568;5.086;2022-07-29T16:01:12;28.50;35.10
26049;DHT22;13822;51.568;5.086;2022-07-29T16:06:14;28.40;35.10
26049;DHT22;13822;51.568;5.086;2022-07-29T16:11:17;28.00;35.50
26049;DHT22;13822;51.568;5.086;2022-07-29T16:16:19;27.80;36.00
26049;DHT22;13822;51.568;5.086;2022-07-29T16:21:21;27.80;37.20
26049;DHT22;13822;51.568;5.086;2022-07-29T16:26:23;27.90;37.50
26049;DHT22;13822;51.568;5.086;2022-07-29T16:31:26;27.90;36.70
26049;DHT22;13822;51.568;5.086;2022-07-29T16:36:28;27.70;37.60
26049;DHT22;13822;51.568;5.086;2022-07-29T16:41:31;27.50;37.80
26049;DHT22;13822;51.568;5.086;2022-07-29T16:46:33;27.30;38.00
26049;DHT22;13822;51.568;5.086;2022-07-29T16:51:41;27.20;38.30
26049;DHT22;13822;51.568;5.086;2022-07-29T16:56:43;27.10;38.30
26049;DHT22;13822;51.568;5.086;2022-07-29T17:01:45;27.10;39.00
26049;DHT22;13822;51.568;5.086;2022-07-29T17:06:47;27.00;38.60
26049;DHT22;13822;51.568;5.086;2022-07-29T17:11:51;26.90;39.50
26049;DHT22;13822;51.568;5.086;2022-07-29T17:16:58;26.80;39.60
26049;DHT22;13822;51.568;5.086;2022-07-29T17:22:04;26.80;39.50
26049;DHT22;13822;51.568;5.086;2022-07-29T17:27:19;26.70;39.60
26049;DHT22;13822;51.568;5.086;2022-07-29T17:32:21;26.50;39.90
26049;DHT22;13822;51.568;5.086;2022-07-29T17:37:23;26.40;39.50
26049;DHT22;13822;51.568;5.086;2022-07-29T17:42:25;26.20;39.00
26049;DHT22;13822;51.568;5.086;2022-07-29T17:47:27;25.90;39.00
26049;DHT22;13822;51.568;5.086;2022-07-29T17:52:29;25.70;39.20
26049;DHT22;13822;51.568;5.086;2022-07-29T17:57:32;25.30;39.40
26049;DHT22;13822;51.568;5.086;2022-07-29T18:02:34;25.10;39.50
26049;DHT22;13822;51.568;5.086;2022-07-29T18:07:40;24.90;40.30
26049;DHT22;13822;51.568;5.086;2022-07-29T18:12:42;24.70;41.20
26049;DHT22;13822;51.568;5.086;2022-07-29T18:17:43;24.60;42.80
26049;DHT22;13822;51.568;5.086;2022-07-29T18:22:58;24.50;42.70
26049;DHT22;13822;51.568;5.086;2022-07-29T18:28:03;24.50;43.90
26049;DHT22;13822;51.568;5.086;2022-07-29T18:33:05;24.40;44.20
26049;DHT22;13822;51.568;5.086;2022-07-29T18:38:23;24.20;45.10
26049;DHT22;13822;51.568;5.086;2022-07-29T18:43:25;24.00;45.70
26049;DHT22;13822;51.568;5.086;2022-07-29T18:48:27;23.80;46.30
26049;DHT22;13822;51.568;5.086;2022-07-29T18:53:29;23.70;47.50
26049;DHT22;13822;51.568;5.086;2022-07-29T18:58:37;23.60;47.70
26049;DHT22;13822;51.568;5.086;2022-07-29T19:03:39;23.40;48.80
26049;DHT22;13822;51.568;5.086;2022-07-29T19:08:41;23.30;49.90
26049;DHT22;13822;51.568;5.086;2022-07-29T19:13:43;23.20;52.70
26049;DHT22;13822;51.568;5.086;2022-07-29T19:18:45;23.00;58.00
26049;DHT22;13822;51.568;5.086;2022-07-29T19:23:50;22.90;54.30
26049;DHT22;13822;51.568;5.086;2022-07-29T19:29:08;22.70;57.60
26049;DHT22;13822;51.568;5.086;2022-07-29T19:34:10;22.60;59.20
26049;DHT22;13822;51.568;5.086;2022-07-29T19:39:12;22.50;68.80
26049;DHT22;13822;51.568;5.086;2022-07-29T19:51:38;22.30;67.30
